sensor_id;sensor_type;location;lat;lon;timestamp;temperature;humidity
44729;DHT22;30457;53.590;9.922;2023-03-01T00:01:18;4.90;48.70
44729;DHT22;30457;53.590;9.922;2023-03-01T00:05:45;4.90;48.90
44729;DHT22;30457;53.590;9.922;2023-03-01T00:10:11;4.90;48.90
44729;DHT22;30457;53.590;9.922;2023-03-01T00:14:36;4.80;48.90
44729;DHT22;30457;53.590;9.922;2023-03-01T00:19:02;4.80;49.10
44729;DHT22;30457;53.590;9.922;2023-03-01T00:23:28;4.80;49.20
44729;DHT22;30457;53.590;9.922;2023-03-01T00:27:53;4.70;49.20
44729;DHT22;30457;53.590;9.922;2023-03-01T00:32:19;4.70;49.30
44729;DHT22;30457;53.590;9.922;2023-03-01T00:36:45;4.70;49.30
44729;DHT22;30457;53.590;9.922;2023-03-01T00:41:15;4.60;49.30
44729;DHT22;30457;53.590;9.922;2023-03-01T00:45:41;4.60;49.30
44729;DHT22;30457;53.590;9.922;2023-03-01T00:50:07;4.60;49.30
44729;DHT22;30457;53.590;9.922;2023-03-01T00:54:33;4.60;49.40
44729;DHT22;30457;53.590;9.922;2023-03-01T00:58:58;4.60;49.50
44729;DHT22;30457;53.590;9.922;2023-03-01T01:03:24;4.50;49.50
44729;DHT22;30457;53.590;9.922;2023-03-01T01:07:52;4.50;49.60
44729;DHT22;30457;53.590;9.922;2023-03-01T01:12:18;4.50;49.60
44729;DHT22;30457;53.590;9.922;2023-03-01T01:16:44;4.40;49.60
44729;DHT22;30457;53.590;9.922;2023-03-01T01:21:12;4.40;49.70
44729;DHT22;30457;53.590;9.922;2023-03-01T01:25:37;4.40;49.80
44729;DHT22;30457;53.590;9.922;2023-03-01T01:30:04;4.40;49.70
44729;DHT22;30457;53.590;9.922;2023-03-01T01:34:30;4.30;49.60
44729;DHT22;30457;53.590;9.922;2023-03-01T01:38:55;4.30;49.70
44729;DHT22;30457;53.590;9.922;2023-03-01T01:43:36;4.30;49.80
44729;DHT22;30457;53.590;9.922;2023-03-01T01:48:10;4.30;49.90
44729;DHT22;30457;53.590;9.922;2023-03-01T01:52:37;4.30;50.00
44729;DHT22;30457;53.590;9.922;2023-03-01T01:57:07;4.20;50.00
44729;DHT22;30457;53.590;9.922;2023-03-01T02:01:34;4.20;50.20
44729;DHT22;30457;53.590;9.922;2023-03-01T02:10:54;4.10;50.40
44729;DHT22;30457;53.590;9.922;2023-03-01T02:15:23;4.10;50.30
44729;DHT22;30457;53.590;9.922;2023-03-01T02:20:21;4.10;50.30
44729;DHT22;30457;53.590;9.922;2023-03-01T02:25:03;4.10;50.60
44729;DHT22;30457;53.590;9.922;2023-03-01T02:29:31;4.10;50.60
44729;DHT22;30457;53.590;9.922;2023-03-01T02:33:57;4.10;50.50
44729;DHT22;30457;53.590;9.922;2023-03-01T02:38:24;4.10;50.70
44729;DHT22;30457;53.590;9.922;2023-03-01T02:42:53;4.10;50.80
44729;DHT22;30457;53.590;9.922;2023-03-01T02:47:19;4.10;51.00
44729;DHT22;30457;53.590;9.922;2023-03-01T02:52:11;4.10;51.10
44729;DHT22;30457;53.590;9.922;2023-03-01T02:56:39;4.10;51.30
44729;DHT22;30457;53.590;9.922;2023-03-01T03:01:05;4.10;51.20
44729;DHT22;30457;53.590;9.922;2023-03-01T03:05:32;4.10;51.20
44729;DHT22;30457;53.590;9.922;2023-03-01T03:09:57;4.10;51.10
44729;DHT22;30457;53.590;9.922;2023-03-01T03:14:23;4.10;51.00
44729;DHT22;30457;53.590;9.922;2023-03-01T03:18:48;4.10;51.00
44729;DHT22;30457;53.590;9.922;2023-03-01T03:23:14;4.00;51.00
44729;DHT22;30457;53.590;9.922;2023-03-01T03:27:41;4.00;51.00
44729;DHT22;30457;53.590;9.922;2023-03-01T03:32:08;4.00;51.10
44729;DHT22;30457;53.590;9.922;2023-03-01T03:36:33;4.00;51.30
44729;DHT22;30457;53.590;9.922;2023-03-01T03:41:02;4.00;51.50
44729;DHT22;30457;53.590;9.922;2023-03-01T03:45:29;4.10;52.00
44729;DHT22;30457;53.590;9.922;2023-03-01T03:49:54;4.10;51.90
44729;DHT22;30457;53.590;9.922;2023-03-01T03:54:20;4.10;52.00
44729;DHT22;30457;53.590;9.922;2023-03-01T03:58:45;4.10;52.10
44729;DHT22;30457;53.590;9.922;2023-03-01T04:03:13;4.20;52.10
44729;DHT22;30457;53.590;9.922;2023-03-01T04:07:39;4.20;52.20
44729;DHT22;30457;53.590;9.922;2023-03-01T04:12:04;4.20;52.20
44729;DHT22;30457;53.590;9.922;2023-03-01T04:16:30;4.30;52.30
44729;DHT22;30457;53.590;9.922;2023-03-01T04:20:55;4.30;52.30
44729;DHT22;30457;53.590;9.922;2023-03-01T04:25:21;4.40;52.20
44729;DHT22;30457;53.590;9.922;2023-03-01T04:29:50;4.40;52.30
44729;DHT22;30457;53.590;9.922;2023-03-01T04:34:16;4.50;52.50
44729;DHT22;30457;53.590;9.922;2023-03-01T04:38:42;4.50;52.60
44729;DHT22;30457;53.590;9.922;2023-03-01T04:43:12;4.50;52.50
44729;DHT22;30457;53.590;9.922;2023-03-01T04:47:42;4.60;52.40
44729;DHT22;30457;53.590;9.922;2023-03-01T04:52:09;4.60;52.40
44729;DHT22;30457;53.590;9.922;2023-03-01T04:56:35;4.70;52.40
44729;DHT22;30457;53.590;9.922;2023-03-01T05:01:00;4.70;52.20
44729;DHT22;30457;53.590;9.922;2023-03-01T05:05:28;4.80;52.20
44729;DHT22;30457;53.590;9.922;2023-03-01T05:09:54;4.80;52.40
44729;DHT22;30457;53.590;9.922;2023-03-01T05:14:20;4.80;52.30
44729;DHT22;30457;53.590;9.922;2023-03-01T05:18:45;4.90;52.40
44729;DHT22;30457;53.590;9.922;2023-03-01T05:23:11;4.90;52.50
44729;DHT22;30457;53.590;9.922;2023-03-01T05:27:37;5.00;52.50
44729;DHT22;30457;53.590;9.922;2023-03-01T05:32:03;5.00;52.30
44729;DHT22;30457;53.590;9.922;2023-03-01T05:36:28;5.00;52.40
44729;DHT22;30457;53.590;9.922;2023-03-01T05:40:54;5.10;52.30
44729;DHT22;30457;53.590;9.922;2023-03-01T05:45:20;5.10;52.50
44729;DHT22;30457;53.590;9.922;2023-03-01T05:49:46;5.10;52.20
44729;DHT22;30457;53.590;9.922;2023-03-01T05:54:12;5.20;51.90
44729;DHT22;30457;53.590;9.922;2023-03-01T05:58:37;5.20;51.80
44729;DHT22;30457;53.590;9.922;2023-03-01T06:03:03;5.30;51.60
44729;DHT22;30457;53.590;9.922;2023-03-01T06:07:29;5.30;51.00
44729;DHT22;30457;53.590;9.922;2023-03-01T06:11:55;5.30;50.70
44729;DHT22;30457;53.590;9.922;2023-03-01T06:16:20;5.30;50.40
44729;DHT22;30457;53.590;9.922;2023-03-01T06:20:53;5.30;50.60
44729;DHT22;30457;53.590;9.922;2023-03-01T06:25:21;5.30;50.80
44729;DHT22;30457;53.590;9.922;2023-03-01T06:29:47;5.40;50.70
44729;DHT22;30457;53.590;9.922;2023-03-01T06:34:12;5.40;50.60
44729;DHT22;30457;53.590;9.922;2023-03-01T06:38:38;5.40;50.50
44729;DHT22;30457;53.590;9.922;2023-03-01T06:43:06;5.40;50.40
44729;DHT22;30457;53.590;9.922;2023-03-01T06:47:33;5.40;50.30
44729;DHT22;30457;53.590;9.922;2023-03-01T06:51:59;5.40;50.40
44729;DHT22;30457;53.590;9.922;2023-03-01T06:56:24;5.50;50.70
44729;DHT22;30457;53.590;9.922;2023-03-01T07:00:50;5.50;51.00
44729;DHT22;30457;53.590;9.922;2023-03-01T07:05:18;5.60;51.10
44729;DHT22;30457;53.590;9.922;2023-03-01T07:09:45;5.60;50.80
44729;DHT22;30457;53.590;9.922;2023-03-01T07:14:11;5.70;50.70
44729;DHT22;30457;53.590;9.922;2023-03-01T07:18:37;5.70;50.40
44729;DHT22;30457;53.590;9.922;2023-03-01T07:23:02;5.80;50.70
44729;DHT22;30457;53.590;9.922;2023-03-01T07:27:28;5.90;50.30
44729;DHT22;30457;53.590;9.922;2023-03-01T07:31:53;6.00;50.10
44729;DHT22;30457;53.590;9.922;2023-03-01T07:36:19;6.00;50.10
44729;DHT22;30457;53.590;9.922;2023-03-01T07:40:45;6.10;50.30
44729;DHT22;30457;53.590;9.922;2023-03-01T07:45:11;6.10;50.10
44729;DHT22;30457;53.590;9.922;2023-03-01T07:49:36;6.20;50.00
44729;DHT22;30457;53.590;9.922;2023-03-01T07:54:02;6.30;50.20
44729;DHT22;30457;53.590;9.922;2023-03-01T07:58:27;6.30;50.70
44729;DHT22;30457;53.590;9.922;2023-03-01T08:02:53;6.30;50.30
44729;DHT22;30457;53.590;9.922;2023-03-01T08:07:19;6.40;50.50
44729;DHT22;30457;53.590;9.922;2023-03-01T08:11:44;6.50;50.80
44729;DHT22;30457;53.590;9.922;2023-03-01T08:16:12;6.60;51.10
44729;DHT22;30457;53.590;9.922;2023-03-01T08:20:38;6.70;51.10
44729;DHT22;30457;53.590;9.922;2023-03-01T08:25:04;6.80;51.20
44729;DHT22;30457;53.590;9.922;2023-03-01T08:29:33;6.90;51.10
44729;DHT22;30457;53.590;9.922;2023-03-01T08:34:01;7.00;51.10
44729;DHT22;30457;53.590;9.922;2023-03-01T08:38:27;7.10;51.00
44729;DHT22;30457;53.590;9.922;2023-03-01T08:42:53;7.10;51.00
44729;DHT22;30457;53.590;9.922;2023-03-01T08:47:18;7.20;51.20
44729;DHT22;30457;53.590;9.922;2023-03-01T08:51:45;7.30;51.50
44729;DHT22;30457;53.590;9.922;2023-03-01T08:56:11;7.40;51.30
44729;DHT22;30457;53.590;9.922;2023-03-01T09:00:37;7.50;51.40
44729;DHT22;30457;53.590;9.922;2023-03-01T09:05:03;7.60;51.50
44729;DHT22;30457;53.590;9.922;2023-03-01T09:09:29;7.80;51.70
44729;DHT22;30457;53.590;9.922;2023-03-01T09:13:54;7.90;51.70
44729;DHT22;30457;53.590;9.922;2023-03-01T09:18:20;8.00;51.60
44729;DHT22;30457;53.590;9.922;2023-03-01T09:22:46;8.10;51.40
44729;DHT22;30457;53.590;9.922;2023-03-01T09:27:12;8.20;51.30
44729;DHT22;30457;53.590;9.922;2023-03-01T09:31:40;8.20;51.20
44729;DHT22;30457;53.590;9.922;2023-03-01T09:36:10;8.30;51.50
44729;DHT22;30457;53.590;9.922;2023-03-01T09:40:36;8.30;51.40
44729;DHT22;30457;53.590;9.922;2023-03-01T09:45:05;8.40;51.50
44729;DHT22;30457;53.590;9.922;2023-03-01T09:49:33;8.50;51.60
44729;DHT22;30457;53.590;9.922;2023-03-01T09:54:04;8.60;51.50
44729;DHT22;30457;53.590;9.922;2023-03-01T10:03:32;8.70;51.50
44729;DHT22;30457;53.590;9.922;2023-03-01T10:12:51;9.00;51.70
44729;DHT22;30457;53.590;9.922;2023-03-01T10:17:37;9.10;51.50
44729;DHT22;30457;53.590;9.922;2023-03-01T10:31:48;9.40;51.40
44729;DHT22;30457;53.590;9.922;2023-03-01T10:36:15;9.50;51.20
44729;DHT22;30457;53.590;9.922;2023-03-01T10:41:09;9.50;51.10
44729;DHT22;30457;53.590;9.922;2023-03-01T10:45:37;9.50;51.20
44729;DHT22;30457;53.590;9.922;2023-03-01T10:50:05;9.60;51.20
44729;DHT22;30457;53.590;9.922;2023-03-01T10:54:32;9.60;51.30
44729;DHT22;30457;53.590;9.922;2023-03-01T10:59:04;9.60;51.30
44729;DHT22;30457;53.590;9.922;2023-03-01T11:03:32;9.70;51.40
44729;DHT22;30457;53.590;9.922;2023-03-01T11:07:59;9.80;51.20
44729;DHT22;30457;53.590;9.922;2023-03-01T11:12:26;9.80;51.10
44729;DHT22;30457;53.590;9.922;2023-03-01T11:17:15;9.80;51.20
44729;DHT22;30457;53.590;9.922;2023-03-01T11:22:12;9.90;51.20
44729;DHT22;30457;53.590;9.922;2023-03-01T11:26:43;10.00;51.50
44729;DHT22;30457;53.590;9.922;2023-03-01T11:31:11;10.00;51.30
44729;DHT22;30457;53.590;9.922;2023-03-01T11:35:45;10.00;51.30
44729;DHT22;30457;53.590;9.922;2023-03-01T11:40:22;10.10;51.40
44729;DHT22;30457;53.590;9.922;2023-03-01T11:44:49;10.30;51.30
44729;DHT22;30457;53.590;9.922;2023-03-01T11:49:49;10.30;51.40
44729;DHT22;30457;53.590;9.922;2023-03-01T12:09:06;10.90;51.40
44729;DHT22;30457;53.590;9.922;2023-03-01T12:33:42;11.70;50.80
44729;DHT22;30457;53.590;9.922;2023-03-01T12:48:20;12.20;49.90
44729;DHT22;30457;53.590;9.922;2023-03-01T12:52:55;12.30;49.80
44729;DHT22;30457;53.590;9.922;2023-03-01T12:57:28;12.40;50.00
44729;DHT22;30457;53.590;9.922;2023-03-01T13:02:25;12.50;49.80
44729;DHT22;30457;53.590;9.922;2023-03-01T13:07:14;12.70;49.70
44729;DHT22;30457;53.590;9.922;2023-03-01T13:11:44;12.90;49.00
44729;DHT22;30457;53.590;9.922;2023-03-01T13:16:39;13.00;48.90
44729;DHT22;30457;53.590;9.922;2023-03-01T13:21:05;13.20;49.00
44729;DHT22;30457;53.590;9.922;2023-03-01T13:25:31;13.30;49.10
44729;DHT22;30457;53.590;9.922;2023-03-01T13:29:58;13.40;48.70
44729;DHT22;30457;53.590;9.922;2023-03-01T13:34:42;13.50;48.50
44729;DHT22;30457;53.590;9.922;2023-03-01T13:39:33;13.60;47.70
44729;DHT22;30457;53.590;9.922;2023-03-01T13:48:57;13.80;48.10
44729;DHT22;30457;53.590;9.922;2023-03-01T13:53:25;13.90;48.20
44729;DHT22;30457;53.590;9.922;2023-03-01T13:57:59;13.90;47.90
44729;DHT22;30457;53.590;9.922;2023-03-01T14:02:24;14.00;47.30
44729;DHT22;30457;53.590;9.922;2023-03-01T14:06:50;14.00;47.00
44729;DHT22;30457;53.590;9.922;2023-03-01T14:11:41;14.00;46.90
44729;DHT22;30457;53.590;9.922;2023-03-01T14:21:13;13.90;46.50
44729;DHT22;30457;53.590;9.922;2023-03-01T14:25:55;13.80;46.30
44729;DHT22;30457;53.590;9.922;2023-03-01T14:30:25;13.70;46.40
44729;DHT22;30457;53.590;9.922;2023-03-01T14:34:51;13.70;46.30
44729;DHT22;30457;53.590;9.922;2023-03-01T14:39:19;13.50;46.40
44729;DHT22;30457;53.590;9.922;2023-03-01T14:43:52;13.40;46.20
44729;DHT22;30457;53.590;9.922;2023-03-01T14:48:19;13.30;47.00
44729;DHT22;30457;53.590;9.922;2023-03-01T14:52:47;13.20;46.50
44729;DHT22;30457;53.590;9.922;2023-03-01T14:57:20;13.10;46.50
44729;DHT22;30457;53.590;9.922;2023-03-01T15:01:47;13.00;46.60
44729;DHT22;30457;53.590;9.922;2023-03-01T15:06:19;13.00;46.70
44729;DHT22;30457;53.590;9.922;2023-03-01T15:10:58;12.90;46.70
44729;DHT22;30457;53.590;9.922;2023-03-01T15:19:55;12.80;46.90
44729;DHT22;30457;53.590;9.922;2023-03-01T15:24:24;12.70;47.00
44729;DHT22;30457;53.590;9.922;2023-03-01T15:28:52;12.70;47.00
44729;DHT22;30457;53.590;9.922;2023-03-01T15:37:52;12.60;47.10
44729;DHT22;30457;53.590;9.922;2023-03-01T15:46:52;12.40;46.90
44729;DHT22;30457;53.590;9.922;2023-03-01T15:51:22;12.40;47.20
44729;DHT22;30457;53.590;9.922;2023-03-01T15:55:48;12.40;47.40
44729;DHT22;30457;53.590;9.922;2023-03-01T16:00:16;12.30;47.40
44729;DHT22;30457;53.590;9.922;2023-03-01T16:04:42;12.30;47.50
44729;DHT22;30457;53.590;9.922;2023-03-01T16:09:08;12.20;47.50
44729;DHT22;30457;53.590;9.922;2023-03-01T16:13:33;12.20;47.60
44729;DHT22;30457;53.590;9.922;2023-03-01T16:17:59;12.10;47.70
44729;DHT22;30457;53.590;9.922;2023-03-01T16:22:25;12.10;47.80
44729;DHT22;30457;53.590;9.922;2023-03-01T16:26:52;12.00;47.80
44729;DHT22;30457;53.590;9.922;2023-03-01T16:31:19;11.90;47.90
44729;DHT22;30457;53.590;9.922;2023-03-01T16:35:44;11.80;47.90
44729;DHT22;30457;53.590;9.922;2023-03-01T16:40:23;11.80;48.00
44729;DHT22;30457;53.590;9.922;2023-03-01T16:44:54;11.70;47.90
44729;DHT22;30457;53.590;9.922;2023-03-01T16:49:20;11.60;47.60
44729;DHT22;30457;53.590;9.922;2023-03-01T16:53:46;11.50;47.70
44729;DHT22;30457;53.590;9.922;2023-03-01T16:58:12;11.40;47.70
44729;DHT22;30457;53.590;9.922;2023-03-01T17:02:38;11.30;47.80
44729;DHT22;30457;53.590;9.922;2023-03-01T17:07:04;11.20;47.90
44729;DHT22;30457;53.590;9.922;2023-03-01T17:11:30;11.10;47.90
44729;DHT22;30457;53.590;9.922;2023-03-01T17:15:55;11.10;48.20
44729;DHT22;30457;53.590;9.922;2023-03-01T17:20:21;11.00;48.30
44729;DHT22;30457;53.590;9.922;2023-03-01T17:24:46;10.90;48.30
44729;DHT22;30457;53.590;9.922;2023-03-01T17:29:12;10.80;48.40
44729;DHT22;30457;53.590;9.922;2023-03-01T17:33:38;10.70;48.40
44729;DHT22;30457;53.590;9.922;2023-03-01T17:38:05;10.60;48.60
44729;DHT22;30457;53.590;9.922;2023-03-01T17:42:31;10.60;48.80
44729;DHT22;30457;53.590;9.922;2023-03-01T17:46:57;10.50;48.80
44729;DHT22;30457;53.590;9.922;2023-03-01T17:51:22;10.40;48.90
44729;DHT22;30457;53.590;9.922;2023-03-01T17:55:48;10.40;49.10
44729;DHT22;30457;53.590;9.922;2023-03-01T18:00:18;10.20;49.20
44729;DHT22;30457;53.590;9.922;2023-03-01T18:04:44;10.10;49.40
44729;DHT22;30457;53.590;9.922;2023-03-01T18:09:09;10.00;49.50
44729;DHT22;30457;53.590;9.922;2023-03-01T18:13:36;9.80;49.70
44729;DHT22;30457;53.590;9.922;2023-03-01T18:18:02;9.60;50.00
44729;DHT22;30457;53.590;9.922;2023-03-01T18:22:28;9.40;50.30
44729;DHT22;30457;53.590;9.922;2023-03-01T18:26:54;9.30;50.20
44729;DHT22;30457;53.590;9.922;2023-03-01T18:31:21;9.20;50.50
44729;DHT22;30457;53.590;9.922;2023-03-01T18:35:46;9.00;50.60
44729;DHT22;30457;53.590;9.922;2023-03-01T18:40:14;8.90;50.80
44729;DHT22;30457;53.590;9.922;2023-03-01T18:44:40;8.80;50.80
44729;DHT22;30457;53.590;9.922;2023-03-01T18:49:06;8.70;51.00
44729;DHT22;30457;53.590;9.922;2023-03-01T18:53:32;8.50;51.10
44729;DHT22;30457;53.590;9.922;2023-03-01T18:57:57;8.40;51.10
44729;DHT22;30457;53.590;9.922;2023-03-01T19:02:23;8.30;51.30
44729;DHT22;30457;53.590;9.922;2023-03-01T19:06:49;8.20;51.40
44729;DHT22;30457;53.590;9.922;2023-03-01T19:11:15;8.00;51.80
44729;DHT22;30457;53.590;9.922;2023-03-01T19:15:43;7.80;52.20
44729;DHT22;30457;53.590;9.922;2023-03-01T19:20:09;7.70;52.60
44729;DHT22;30457;53.590;9.922;2023-03-01T19:24:35;7.60;52.80
44729;DHT22;30457;53.590;9.922;2023-03-01T19:29:01;7.40;53.10
44729;DHT22;30457;53.590;9.922;2023-03-01T19:33:29;7.30;53.70
44729;DHT22;30457;53.590;9.922;2023-03-01T19:37:55;7.10;54.60
44729;DHT22;30457;53.590;9.922;2023-03-01T19:42:21;7.00;54.90
44729;DHT22;30457;53.590;9.922;2023-03-01T19:46:52;7.00;54.80
44729;DHT22;30457;53.590;9.922;2023-03-01T19:51:18;6.90;55.70
44729;DHT22;30457;53.590;9.922;2023-03-01T19:55:44;6.90;56.00
44729;DHT22;30457;53.590;9.922;2023-03-01T20:00:10;7.00;55.70
44729;DHT22;30457;53.590;9.922;2023-03-01T20:04:38;7.00;56.00
44729;DHT22;30457;53.590;9.922;2023-03-01T20:09:05;7.00;55.70
44729;DHT22;30457;53.590;9.922;2023-03-01T20:13:31;7.00;55.60
44729;DHT22;30457;53.590;9.922;2023-03-01T20:17:56;7.00;55.70
44729;DHT22;30457;53.590;9.922;2023-03-01T20:22:22;6.90;55.70
44729;DHT22;30457;53.590;9.922;2023-03-01T20:26:47;6.90;56.30
44729;DHT22;30457;53.590;9.922;2023-03-01T20:31:14;6.90;56.60
44729;DHT22;30457;53.590;9.922;2023-03-01T20:35:41;6.90;56.70
44729;DHT22;30457;53.590;9.922;2023-03-01T20:40:08;6.90;56.30
44729;DHT22;30457;53.590;9.922;2023-03-01T20:44:33;6.90;56.50
44729;DHT22;30457;53.590;9.922;2023-03-01T20:49:00;6.90;56.40
44729;DHT22;30457;53.590;9.922;2023-03-01T20:53:26;6.90;56.60
44729;DHT22;30457;53.590;9.922;2023-03-01T20:57:52;6.90;56.60
44729;DHT22;30457;53.590;9.922;2023-03-01T21:02:18;7.00;56.40
44729;DHT22;30457;53.590;9.922;2023-03-01T21:06:44;7.00;56.30
44729;DHT22;30457;53.590;9.922;2023-03-01T21:11:09;6.90;56.80
44729;DHT22;30457;53.590;9.922;2023-03-01T21:15:35;6.90;56.40
44729;DHT22;30457;53.590;9.922;2023-03-01T21:20:01;6.80;56.70
44729;DHT22;30457;53.590;9.922;2023-03-01T21:24:26;6.70;56.70
44729;DHT22;30457;53.590;9.922;2023-03-01T21:28:57;6.60;57.10
44729;DHT22;30457;53.590;9.922;2023-03-01T21:33:24;6.60;57.50
44729;DHT22;30457;53.590;9.922;2023-03-01T21:37:50;6.50;57.40
44729;DHT22;30457;53.590;9.922;2023-03-01T21:42:15;6.50;57.70
44729;DHT22;30457;53.590;9.922;2023-03-01T21:46:41;6.50;57.70
44729;DHT22;30457;53.590;9.922;2023-03-01T21:51:07;6.50;57.80
44729;DHT22;30457;53.590;9.922;2023-03-01T21:55:34;6.50;57.60
44729;DHT22;30457;53.590;9.922;2023-03-01T21:59:59;6.50;57.70
44729;DHT22;30457;53.590;9.922;2023-03-01T22:04:25;6.40;58.20
44729;DHT22;30457;53.590;9.922;2023-03-01T22:08:56;6.40;58.30
44729;DHT22;30457;53.590;9.922;2023-03-01T22:13:22;6.40;58.00
44729;DHT22;30457;53.590;9.922;2023-03-01T22:17:47;6.30;58.30
44729;DHT22;30457;53.590;9.922;2023-03-01T22:22:13;6.30;58.60
44729;DHT22;30457;53.590;9.922;2023-03-01T22:26:41;6.30;58.40
44729;DHT22;30457;53.590;9.922;2023-03-01T22:31:06;6.30;58.40
44729;DHT22;30457;53.590;9.922;2023-03-01T22:35:32;6.30;58.50
44729;DHT22;30457;53.590;9.922;2023-03-01T22:39:57;6.30;58.30
44729;DHT22;30457;53.590;9.922;2023-03-01T22:44:24;6.30;57.90
44729;DHT22;30457;53.590;9.922;2023-03-01T22:48:49;6.30;58.30
44729;DHT22;30457;53.590;9.922;2023-03-01T22:53:15;6.30;58.50
44729;DHT22;30457;53.590;9.922;2023-03-01T22:57:42;6.30;58.60
44729;DHT22;30457;53.590;9.922;2023-03-01T23:02:07;6.30;58.20
44729;DHT22;30457;53.590;9.922;2023-03-01T23:06:33;6.30;58.40
44729;DHT22;30457;53.590;9.922;2023-03-01T23:10:59;6.40;58.50
44729;DHT22;30457;53.590;9.922;2023-03-01T23:15:24;6.40;58.40
44729;DHT22;30457;53.590;9.922;2023-03-01T23:19:50;6.40;58.20
44729;DHT22;30457;53.590;9.922;2023-03-01T23:24:17;6.40;57.90
44729;DHT22;30457;53.590;9.922;2023-03-01T23:28:43;6.40;58.10
44729;DHT22;30457;53.590;9.922;2023-03-01T23:33:09;6.50;57.70
44729;DHT22;30457;53.590;9.922;2023-03-01T23:37:35;6.40;57.60
44729;DHT22;30457;53.590;9.922;2023-03-01T23:42:01;6.40;57.80
44729;DHT22;30457;53.590;9.922;2023-03-01T23:46:32;6.30;57.50
44729;DHT22;30457;53.590;9.922;2023-03-01T23:51:03;6.20;57.90
44729;DHT22;30457;53.590;9.922;2023-03-01T23:55:29;6.20;57.90
44729;DHT22;30457;53.590;9.922;2023-03-01T23:59:54;6.10;58.20
